Hlavní strana
METAR-TAF:

METAR-TAF

Letiště :

Mezinárodní letiště Káhira

Káhira, Egypt

zeměpisná šířka: 30-08N, zeměpisná délka: 031-24E, výška: 64 m

Aktuální stav počasí

Zpráva byla vytvořena před 16 minutami, v 14:00 UTC
Jihojihozápadní vítr 6 kt
Teplota 16°C
Vlhkost vzduchu 59%
Tlak 1017 hPa
Viditelnost: 6000 m
Polojasno ve výšce 2500 ft
Oblačno až skoro zataženo ve výšce 7000 ft

METAR: HECA 181400Z 21006KT 6000 SCT025 BKN070 16/08 Q1017 NOSIG

Čas: 16:16 (14:16 UTC)

Předpověď počasí

Zpráva byla vytvořena před 3 hodinami a 16 minutami, v 11:00 UTC
Předpověď platná od 18 v 12 UTC do 19 v 18 UTC
Jihojihozápadní vítr 12 kt
Viditelnost: 6000 m
Polojasno ve výšce 2000 ft
Polojasno ve výšce 2500 ft
Dočasný
od 18 v 12 UTC do 18 v 14 UTC
Viditelnost: 3000 m
zákal
Dočasný
od 18 v 14 UTC do 18 v 18 UTC
Viditelnost: 4000 m
Oblačno až skoro zataženo ve výšce 2000 ft
slabý déšť

TAF: HECA 181100Z 1812/1918 21012KT 6000 SCT020 SCT025 TEMPO 1812/1814 3000 HZ TEMPO 1814/1818 4000 -RA BKN020

Stav a předpovědi počasí z více než 4 000 letišť (zprávy METAR a TAF).

Červené a žluté tečky na mapě představují dostupné meteorologické stanice.

Když kurzor umístíte na tečku, zobrazí se název stanice.

Pak kliknutím zobrazíte stav a předpověď počasí.

Chcete-li změnit mapu, kliknutím na zelené tlačítko se znaménkem +mapu přiblížíte, kliknutím na zelené tlačítko se znaménkem – mapu oddálíte a kliknutím na zelené šipky přejdete na sousední mapy.


METAR-TAF: